Time;durP1;ratioP1;P1;durP2;ratioP2;P2;SDS_P1;SDS_P2;PMS_P1;PMS_P2;Temp;Humidity;BMP_temperature;BMP_pressure;BME280_temperature;BME280_humidity;BME280_pressure;Samples;Min_cycle;Max_cycle;Signal;HPM_P1;HPM_P2
2023/08/27 00:00:10;;;;;;;2.78;2.65;;;;;;;;;;4998240;28;20204;-63
2023/08/27 00:02:37;;;;;;;2.22;2.10;;;;;;;;;;4997755;28;20616;-63
2023/08/27 00:05:07;;;;;;;2.17;2.03;;;;;;;;;;5003665;28;20237;-63
2023/08/27 00:07:35;;;;;;;5.28;2.28;;;;;;;;;;5001695;28;20217;-61
2023/08/27 00:10:02;;;;;;;3.92;2.15;;;;;;;;;;5005211;28;20289;-64
2023/08/27 00:12:29;;;;;;;3.67;2.38;;;;;;;;;;5019836;28;20204;-61
2023/08/27 00:14:56;;;;;;;2.10;2.00;;;;;;;;;;5023203;28;20216;-61
2023/08/27 00:17:24;;;;;;;2.35;2.05;;;;;;;;;;5021171;28;20948;-61
2023/08/27 00:19:51;;;;;;;2.17;2.05;;;;;;;;;;5000147;28;20212;-61
2023/08/27 00:22:19;;;;;;;2.17;2.08;;;;;;;;;;5003142;28;20212;-63
2023/08/27 00:24:46;;;;;;;8.07;2.72;;;;;;;;;;5004132;28;20287;-63
2023/08/27 00:27:13;;;;;;;3.08;2.20;;;;;;;;;;4999926;28;20232;-62
2023/08/27 00:29:40;;;;;;;3.92;2.28;;;;;;;;;;4997904;28;20577;-61
2023/08/27 00:32:07;;;;;;;2.97;2.10;;;;;;;;;;5015259;28;20777;-61
2023/08/27 00:34:35;;;;;;;2.05;1.95;;;;;;;;;;5018400;28;20232;-61
2023/08/27 00:37:03;;;;;;;2.10;1.92;;;;;;;;;;5019122;28;20667;-61
2023/08/27 00:39:31;;;;;;;3.80;2.10;;;;;;;;;;5023173;28;20307;-61
2023/08/27 00:41:58;;;;;;;3.45;2.50;;;;;;;;;;5015204;28;20224;-61
2023/08/27 00:44:25;;;;;;;2.33;2.05;;;;;;;;;;5019221;28;20571;-61
2023/08/27 00:46:52;;;;;;;2.33;2.08;;;;;;;;;;5013905;28;20231;-61
2023/08/27 00:49:19;;;;;;;2.10;2.00;;;;;;;;;;5022567;28;20216;-60
2023/08/27 00:51:48;;;;;;;3.50;2.40;;;;;;;;;;5023108;28;20223;-61
2023/08/27 00:54:15;;;;;;;2.13;2.03;;;;;;;;;;5006714;28;20224;-61
2023/08/27 00:56:44;;;;;;;2.92;2.30;;;;;;;;;;5003329;28;20217;-63
2023/08/27 00:59:12;;;;;;;2.72;2.15;;;;;;;;;;5001156;28;20248;-61
2023/08/27 01:01:40;;;;;;;4.13;2.30;;;;;;;;;;5005397;28;20239;-61
2023/08/27 01:04:07;;;;;;;3.30;2.03;;;;;;;;;;5016848;28;20303;-61
2023/08/27 01:06:34;;;;;;;3.72;2.00;;;;;;;;;;5003920;28;20746;-61
2023/08/27 01:09:04;;;;;;;4.65;2.10;;;;;;;;;;5000933;28;20224;-61
2023/08/27 01:11:47;;;;;;;2.13;2.03;;;;;;;;;;5021332;28;20239;-62
2023/08/27 01:14:17;;;;;;;1.98;1.90;;;;;;;;;;5015740;28;20204;-61
2023/08/27 01:16:45;;;;;;;3.92;2.50;;;;;;;;;;5004407;28;20316;-61
2023/08/27 01:19:14;;;;;;;5.13;2.28;;;;;;;;;;5020240;28;20204;-61
2023/08/27 01:21:42;;;;;;;2.72;2.47;;;;;;;;;;5002812;28;20205;-61
2023/08/27 01:24:09;;;;;;;2.58;2.38;;;;;;;;;;5003858;28;20212;-61
2023/08/27 01:26:37;;;;;;;2.25;2.15;;;;;;;;;;5003998;28;20678;-61
2023/08/27 01:29:10;;;;;;;3.20;2.22;;;;;;;;;;5005948;28;20788;-60
2023/08/27 01:31:45;;;;;;;4.05;2.10;;;;;;;;;;5016493;28;20212;-61
2023/08/27 01:34:13;;;;;;;5.95;2.53;;;;;;;;;;5018957;28;20234;-60
2023/08/27 01:36:42;;;;;;;2.20;2.17;;;;;;;;;;5020278;28;20213;-60
2023/08/27 01:39:13;;;;;;;2.63;2.53;;;;;;;;;;5010987;28;20220;-60
2023/08/27 01:41:41;;;;;;;2.50;2.30;;;;;;;;;;5004118;28;20201;-61
2023/08/27 01:44:08;;;;;;;2.70;2.50;;;;;;;;;;5004449;28;20695;-61
2023/08/27 01:46:35;;;;;;;5.07;2.58;;;;;;;;;;5021879;28;20228;-61
2023/08/27 01:49:02;;;;;;;4.55;2.58;;;;;;;;;;5021794;28;20222;-60
2023/08/27 01:51:29;;;;;;;2.38;2.22;;;;;;;;;;5020193;28;20259;-63
2023/08/27 01:53:57;;;;;;;6.30;2.67;;;;;;;;;;5009327;28;20216;-61
2023/08/27 01:56:24;;;;;;;3.70;2.50;;;;;;;;;;5016878;28;20205;-60
2023/08/27 01:58:51;;;;;;;7.15;2.10;;;;;;;;;;5018668;28;20212;-61
2023/08/27 02:01:18;;;;;;;3.10;2.70;;;;;;;;;;5022825;28;20239;-61
2023/08/27 02:03:46;;;;;;;7.80;2.55;;;;;;;;;;5017193;28;20212;-61
2023/08/27 02:06:13;;;;;;;2.58;2.38;;;;;;;;;;5000610;28;20236;-60
2023/08/27 02:08:40;;;;;;;2.53;2.38;;;;;;;;;;4999704;28;20200;-60
2023/08/27 02:11:08;;;;;;;5.75;2.50;;;;;;;;;;4999845;28;20573;-60
2023/08/27 02:13:35;;;;;;;2.95;2.30;;;;;;;;;;5003327;28;20213;-61
2023/08/27 02:16:02;;;;;;;2.75;2.30;;;;;;;;;;5020270;28;20288;-61
2023/08/27 02:18:29;;;;;;;2.42;2.33;;;;;;;;;;5021250;28;20286;-61
2023/08/27 02:20:57;;;;;;;2.63;2.50;;;;;;;;;;5008646;28;20209;-60
2023/08/27 02:23:24;;;;;;;2.30;2.20;;;;;;;;;;5000421;28;20205;-61
2023/08/27 02:25:51;;;;;;;2.67;2.47;;;;;;;;;;5004601;28;20225;-60
2023/08/27 02:28:20;;;;;;;4.13;2.20;;;;;;;;;;5005523;28;20593;-61
2023/08/27 02:30:51;;;;;;;2.92;2.53;;;;;;;;;;4999015;28;20216;-61
2023/08/27 02:33:18;;;;;;;2.33;2.13;;;;;;;;;;5013198;28;20294;-61
2023/08/27 02:35:45;;;;;;;2.45;2.25;;;;;;;;;;5002087;28;20205;-60
2023/08/27 02:38:13;;;;;;;4.45;2.30;;;;;;;;;;5011273;28;20201;-60
2023/08/27 02:40:40;;;;;;;3.75;2.10;;;;;;;;;;5022547;28;20204;-61
2023/08/27 02:43:07;;;;;;;2.38;2.25;;;;;;;;;;5008379;28;20300;-61
2023/08/27 02:45:36;;;;;;;2.97;2.50;;;;;;;;;;5010373;28;20200;-61
2023/08/27 02:48:03;;;;;;;3.05;2.10;;;;;;;;;;5020471;28;20215;-61
2023/08/27 02:50:30;;;;;;;4.13;2.40;;;;;;;;;;5023560;28;20235;-60
2023/08/27 02:52:57;;;;;;;2.40;2.30;;;;;;;;;;5022606;28;20213;-60
2023/08/27 02:55:24;;;;;;;2.20;2.10;;;;;;;;;;5018471;28;20200;-60
2023/08/27 02:57:51;;;;;;;6.80;2.67;;;;;;;;;;5022242;28;20366;-60
2023/08/27 03:00:18;;;;;;;2.90;2.40;;;;;;;;;;5017788;28;20209;-60
2023/08/27 03:02:47;;;;;;;3.08;2.22;;;;;;;;;;5000622;28;20252;-60
2023/08/27 03:05:14;;;;;;;3.78;2.38;;;;;;;;;;5002121;28;20215;-60
2023/08/27 03:07:41;;;;;;;5.15;2.60;;;;;;;;;;5018728;28;20228;-60
2023/08/27 03:10:08;;;;;;;2.45;2.25;;;;;;;;;;5023754;28;20216;-60
2023/08/27 03:12:35;;;;;;;4.32;2.38;;;;;;;;;;5019915;28;20642;-60
2023/08/27 03:15:03;;;;;;;2.78;2.67;;;;;;;;;;5011299;28;20200;-61
2023/08/27 03:17:30;;;;;;;5.65;2.53;;;;;;;;;;5004255;28;20225;-60
2023/08/27 03:19:58;;;;;;;2.50;2.30;;;;;;;;;;5004512;28;20213;-60
2023/08/27 03:22:25;;;;;;;2.33;2.22;;;;;;;;;;5015874;28;20211;-61
2023/08/27 03:24:54;;;;;;;3.75;2.40;;;;;;;;;;5017580;28;20237;-60
2023/08/27 03:27:21;;;;;;;2.25;2.15;;;;;;;;;;5018059;28;20224;-63
2023/08/27 03:29:48;;;;;;;2.97;2.10;;;;;;;;;;5019811;28;20215;-63
2023/08/27 03:32:15;;;;;;;2.72;2.30;;;;;;;;;;5009641;28;20209;-60
2023/08/27 03:34:42;;;;;;;3.58;2.70;;;;;;;;;;5000714;28;20304;-60
2023/08/27 03:37:10;;;;;;;3.92;2.55;;;;;;;;;;5008819;28;20213;-62
2023/08/27 03:39:37;;;;;;;2.40;2.30;;;;;;;;;;5001877;28;20200;-61
2023/08/27 03:42:05;;;;;;;2.63;2.50;;;;;;;;;;5003513;28;20728;-61
2023/08/27 03:44:32;;;;;;;2.55;2.40;;;;;;;;;;5000171;28;20216;-61
2023/08/27 03:46:59;;;;;;;2.97;2.70;;;;;;;;;;4999971;28;20217;-61
2023/08/27 03:49:26;;;;;;;3.70;2.53;;;;;;;;;;5010436;28;20200;-62
2023/08/27 03:51:53;;;;;;;6.60;2.60;;;;;;;;;;5003856;28;20212;-61
2023/08/27 03:54:21;;;;;;;4.60;2.28;;;;;;;;;;4999984;28;20822;-61
2023/08/27 03:56:48;;;;;;;2.90;2.70;;;;;;;;;;5001038;28;20211;-61
2023/08/27 03:59:15;;;;;;;3.75;2.50;;;;;;;;;;5019811;28;20215;-60
2023/08/27 04:01:42;;;;;;;6.63;3.03;;;;;;;;;;5021467;28;20248;-61
2023/08/27 04:04:09;;;;;;;3.40;3.05;;;;;;;;;;5013733;28;20208;-61
2023/08/27 04:06:36;;;;;;;3.88;3.13;;;;;;;;;;4998058;28;20233;-60
2023/08/27 04:09:04;;;;;;;3.05;2.95;;;;;;;;;;5001674;28;20217;-61
2023/08/27 04:11:33;;;;;;;2.58;2.38;;;;;;;;;;5003487;28;20256;-61
2023/08/27 04:14:00;;;;;;;2.97;2.40;;;;;;;;;;5000075;28;20217;-61
2023/08/27 04:16:27;;;;;;;2.90;2.25;;;;;;;;;;5012540;28;20215;-61
2023/08/27 04:18:55;;;;;;;2.25;2.25;;;;;;;;;;5017560;28;20216;-61
2023/08/27 04:21:22;;;;;;;2.33;2.22;;;;;;;;;;5018042;28;20208;-61
2023/08/27 04:23:49;;;;;;;6.15;2.28;;;;;;;;;;5026427;28;20212;-61
2023/08/27 04:26:18;;;;;;;2.78;2.38;;;;;;;;;;5009049;28;20209;-61
2023/08/27 04:28:46;;;;;;;5.63;2.45;;;;;;;;;;5003120;28;20209;-60
2023/08/27 04:31:15;;;;;;;6.10;2.67;;;;;;;;;;5001984;28;20220;-61
2023/08/27 04:33:42;;;;;;;2.50;2.30;;;;;;;;;;5003685;28;20253;-60
2023/08/27 04:36:09;;;;;;;2.70;2.60;;;;;;;;;;5011229;28;20204;-60
2023/08/27 04:38:36;;;;;;;2.58;2.47;;;;;;;;;;5003498;28;20208;-61
2023/08/27 04:41:03;;;;;;;2.47;2.28;;;;;;;;;;5002800;28;20213;-62
2023/08/27 04:43:30;;;;;;;2.60;2.40;;;;;;;;;;5003604;28;20209;-61
2023/08/27 04:45:58;;;;;;;4.97;2.42;;;;;;;;;;5007329;28;20213;-61
2023/08/27 04:48:25;;;;;;;5.95;2.90;;;;;;;;;;5017670;28;20235;-61
2023/08/27 04:50:52;;;;;;;2.92;2.72;;;;;;;;;;5021369;28;20219;-61
2023/08/27 04:53:20;;;;;;;4.20;2.80;;;;;;;;;;5013086;28;20243;-61
2023/08/27 04:55:49;;;;;;;3.28;3.03;;;;;;;;;;5004918;28;20241;-62
2023/08/27 04:58:16;;;;;;;2.72;2.53;;;;;;;;;;5012093;28;20196;-62
2023/08/27 05:00:43;;;;;;;3.03;2.53;;;;;;;;;;5021356;28;20227;-61
2023/08/27 05:03:11;;;;;;;2.80;2.70;;;;;;;;;;5020715;28;20240;-60
2023/08/27 05:05:39;;;;;;;4.22;2.78;;;;;;;;;;5012136;28;20219;-60
2023/08/27 05:08:06;;;;;;;6.10;3.17;;;;;;;;;;5006456;28;20240;-60
2023/08/27 05:10:33;;;;;;;4.22;3.28;;;;;;;;;;5020691;28;20580;-60
2023/08/27 05:13:00;;;;;;;3.67;2.90;;;;;;;;;;5022815;28;20212;-60
2023/08/27 05:15:27;;;;;;;4.93;3.13;;;;;;;;;;5022678;28;20638;-60
2023/08/27 05:17:54;;;;;;;2.78;2.58;;;;;;;;;;5022553;28;20225;-60
2023/08/27 05:20:23;;;;;;;4.95;3.10;;;;;;;;;;5022692;28;20932;-60
2023/08/27 05:22:50;;;;;;;7.03;2.58;;;;;;;;;;5021583;28;20473;-60
2023/08/27 05:25:17;;;;;;;4.15;2.78;;;;;;;;;;5005988;28;20208;-60
2023/08/27 05:27:45;;;;;;;3.60;2.80;;;;;;;;;;5011620;28;20227;-60
2023/08/27 05:30:13;;;;;;;4.47;3.10;;;;;;;;;;5015990;28;20215;-60
2023/08/27 05:32:40;;;;;;;6.68;4.00;;;;;;;;;;5017173;28;20288;-61
2023/08/27 05:35:08;;;;;;;5.57;3.45;;;;;;;;;;5015915;28;20240;-60
2023/08/27 05:37:36;;;;;;;3.72;3.50;;;;;;;;;;5020739;28;20231;-60
2023/08/27 05:40:05;;;;;;;4.15;3.95;;;;;;;;;;5003233;28;20675;-60
2023/08/27 05:42:32;;;;;;;4.55;4.15;;;;;;;;;;5002062;28;20217;-59
2023/08/27 05:44:59;;;;;;;11.18;3.97;;;;;;;;;;5006022;28;20239;-60
2023/08/27 05:47:27;;;;;;;5.05;3.80;;;;;;;;;;5005629;28;20237;-60
2023/08/27 05:49:54;;;;;;;4.65;3.85;;;;;;;;;;5000485;28;20303;-60
2023/08/27 05:52:21;;;;;;;6.95;3.45;;;;;;;;;;5003159;28;20205;-60
2023/08/27 05:54:50;;;;;;;5.65;3.95;;;;;;;;;;5005535;28;20235;-60
2023/08/27 05:57:17;;;;;;;5.60;3.83;;;;;;;;;;5003590;28;20567;-60
2023/08/27 05:59:44;;;;;;;5.88;4.78;;;;;;;;;;5000367;28;20209;-59
2023/08/27 06:02:13;;;;;;;3.90;3.63;;;;;;;;;;5015713;28;20247;-60
2023/08/27 06:04:40;;;;;;;3.63;3.38;;;;;;;;;;5018004;28;20212;-60
2023/08/27 06:07:09;;;;;;;4.38;4.03;;;;;;;;;;5007192;28;20229;-60
2023/08/27 06:09:36;;;;;;;7.68;4.82;;;;;;;;;;5007356;28;20444;-60
2023/08/27 06:12:06;;;;;;;4.38;3.90;;;;;;;;;;5006318;28;20344;-60
2023/08/27 06:14:33;;;;;;;3.97;3.78;;;;;;;;;;5014208;28;20213;-60
2023/08/27 06:17:00;;;;;;;7.00;4.13;;;;;;;;;;5009144;28;20232;-60
2023/08/27 06:19:27;;;;;;;6.70;3.63;;;;;;;;;;5011675;28;20667;-59
2023/08/27 06:21:54;;;;;;;5.78;3.92;;;;;;;;;;5008792;28;20211;-59
2023/08/27 06:24:21;;;;;;;4.53;3.90;;;;;;;;;;5005054;28;20320;-59
2023/08/27 06:26:48;;;;;;;4.40;4.00;;;;;;;;;;5004874;28;20534;-60
2023/08/27 06:29:17;;;;;;;5.47;4.10;;;;;;;;;;5009194;28;20200;-59
2023/08/27 06:31:44;;;;;;;4.45;4.05;;;;;;;;;;5003732;28;20205;-62
2023/08/27 06:34:12;;;;;;;3.97;3.60;;;;;;;;;;5011262;28;20291;-60
2023/08/27 06:36:39;;;;;;;3.92;3.60;;;;;;;;;;5004940;28;20208;-60
2023/08/27 06:39:06;;;;;;;3.95;3.70;;;;;;;;;;5012067;28;20208;-60
2023/08/27 06:41:33;;;;;;;7.03;4.30;;;;;;;;;;5015592;28;20231;-60
2023/08/27 06:44:01;;;;;;;4.40;4.00;;;;;;;;;;5002682;28;20209;-60
2023/08/27 06:46:30;;;;;;;4.22;3.58;;;;;;;;;;5013256;28;20214;-60
2023/08/27 06:48:57;;;;;;;5.05;3.63;;;;;;;;;;5010039;28;20229;-61
2023/08/27 06:51:24;;;;;;;3.42;3.22;;;;;;;;;;5001158;28;20772;-60
2023/08/27 06:53:51;;;;;;;4.60;4.30;;;;;;;;;;5003044;28;20829;-60
2023/08/27 06:56:18;;;;;;;4.32;3.95;;;;;;;;;;5005952;28;20213;-60
2023/08/27 06:58:46;;;;;;;5.70;4.50;;;;;;;;;;5000909;28;20671;-60
2023/08/27 07:01:14;;;;;;;4.35;3.95;;;;;;;;;;5004135;28;20240;-60
2023/08/27 07:03:42;;;;;;;4.00;3.67;;;;;;;;;;5021882;28;20564;-60
2023/08/27 07:06:09;;;;;;;4.68;4.30;;;;;;;;;;5003287;28;20213;-60
2023/08/27 07:08:37;;;;;;;2.92;2.83;;;;;;;;;;5000371;28;20244;-61
2023/08/27 07:11:04;;;;;;;3.55;3.35;;;;;;;;;;5002505;28;20267;-60
2023/08/27 07:13:31;;;;;;;4.47;4.07;;;;;;;;;;5004091;28;20576;-60
2023/08/27 07:15:58;;;;;;;4.57;4.05;;;;;;;;;;5010813;28;20208;-60
2023/08/27 07:18:25;;;;;;;4.25;3.97;;;;;;;;;;5000719;28;20599;-60
2023/08/27 07:20:53;;;;;;;3.67;3.38;;;;;;;;;;4998807;28;20773;-60
2023/08/27 07:23:21;;;;;;;3.50;3.20;;;;;;;;;;4998413;28;20450;-60
2023/08/27 07:25:48;;;;;;;3.75;3.45;;;;;;;;;;5002198;28;20220;-61
2023/08/27 07:28:15;;;;;;;3.53;3.22;;;;;;;;;;5004091;28;20237;-61
2023/08/27 07:30:42;;;;;;;3.15;3.05;;;;;;;;;;5009426;28;20212;-61
2023/08/27 07:33:11;;;;;;;3.83;3.38;;;;;;;;;;5000426;28;20220;-61
2023/08/27 07:35:38;;;;;;;3.60;3.40;;;;;;;;;;4998444;28;20213;-60
2023/08/27 07:38:06;;;;;;;3.30;3.00;;;;;;;;;;5003874;28;20207;-60
2023/08/27 07:40:36;;;;;;;4.40;3.47;;;;;;;;;;5003178;28;20213;-60
2023/08/27 07:43:03;;;;;;;6.72;3.97;;;;;;;;;;5002684;28;20679;-61
2023/08/27 07:45:30;;;;;;;3.10;2.90;;;;;;;;;;5017282;28;20211;-61
2023/08/27 07:47:57;;;;;;;4.57;3.88;;;;;;;;;;5012929;28;20243;-61
2023/08/27 07:50:24;;;;;;;7.20;4.43;;;;;;;;;;5014945;28;20192;-60
2023/08/27 07:52:51;;;;;;;3.85;3.55;;;;;;;;;;5003428;28;20402;-59
2023/08/27 07:55:20;;;;;;;3.75;3.42;;;;;;;;;;5011198;28;20937;-61
2023/08/27 07:57:47;;;;;;;6.68;4.15;;;;;;;;;;5010175;28;20209;-60
2023/08/27 08:00:14;;;;;;;3.90;3.67;;;;;;;;;;5008047;28;20208;-60
2023/08/27 08:02:42;;;;;;;4.47;4.07;;;;;;;;;;5014883;28;20297;-61
2023/08/27 08:05:10;;;;;;;3.97;3.72;;;;;;;;;;5014130;28;20208;-61
2023/08/27 08:07:40;;;;;;;5.00;3.75;;;;;;;;;;5020015;28;20240;-62
2023/08/27 08:10:07;;;;;;;4.15;3.75;;;;;;;;;;5012664;28;20209;-61
2023/08/27 08:12:36;;;;;;;3.92;3.05;;;;;;;;;;5010695;28;20208;-60
2023/08/27 08:15:06;;;;;;;3.83;3.53;;;;;;;;;;5004347;28;20205;-65
2023/08/27 08:17:33;;;;;;;5.07;3.40;;;;;;;;;;5002767;28;20307;-69
2023/08/27 08:20:02;;;;;;;7.30;3.00;;;;;;;;;;5010040;28;20212;-69
2023/08/27 08:22:30;;;;;;;3.78;3.40;;;;;;;;;;5012756;28;20366;-68
2023/08/27 08:24:57;;;;;;;3.63;3.40;;;;;;;;;;5022406;28;20201;-69
2023/08/27 08:27:24;;;;;;;6.85;3.13;;;;;;;;;;5006267;28;20781;-69
2023/08/27 08:29:52;;;;;;;6.55;3.58;;;;;;;;;;5001527;28;20213;-69
2023/08/27 08:32:21;;;;;;;3.72;3.05;;;;;;;;;;5011080;28;20792;-69
2023/08/27 08:34:48;;;;;;;3.30;3.00;;;;;;;;;;5006830;28;20243;-69
2023/08/27 08:37:15;;;;;;;6.80;3.25;;;;;;;;;;5007092;28;20205;-69
2023/08/27 08:39:42;;;;;;;3.90;3.38;;;;;;;;;;5003574;28;20205;-69
2023/08/27 08:42:13;;;;;;;3.70;3.17;;;;;;;;;;5004953;28;20241;-68
2023/08/27 08:44:44;;;;;;;5.57;3.80;;;;;;;;;;5007193;28;20267;-69
2023/08/27 08:47:13;;;;;;;4.90;2.90;;;;;;;;;;5007268;28;20223;-69
2023/08/27 08:49:40;;;;;;;4.07;3.78;;;;;;;;;;5015147;28;20235;-69
2023/08/27 08:52:10;;;;;;;4.32;3.92;;;;;;;;;;5020969;28;20220;-68
2023/08/27 08:54:37;;;;;;;4.07;3.88;;;;;;;;;;5015307;28;20236;-69
2023/08/27 08:57:06;;;;;;;3.60;3.40;;;;;;;;;;5006669;28;20213;-68
2023/08/27 08:59:33;;;;;;;3.13;2.85;;;;;;;;;;5013978;28;20723;-68
2023/08/27 09:02:02;;;;;;;5.25;3.80;;;;;;;;;;5009303;28;20339;-68
2023/08/27 09:04:32;;;;;;;5.65;3.92;;;;;;;;;;5001883;28;20209;-68
2023/08/27 09:06:59;;;;;;;4.05;3.55;;;;;;;;;;5002780;28;20244;-68
2023/08/27 09:09:27;;;;;;;4.28;3.78;;;;;;;;;;5006333;28;20236;-68
2023/08/27 09:11:56;;;;;;;4.28;3.88;;;;;;;;;;5004741;28;20208;-68
2023/08/27 09:14:24;;;;;;;4.10;3.30;;;;;;;;;;5005818;28;20596;-69
2023/08/27 09:16:51;;;;;;;4.25;3.92;;;;;;;;;;5014023;28;20228;-67
2023/08/27 09:19:18;;;;;;;5.22;4.05;;;;;;;;;;5020651;28;20215;-68
2023/08/27 09:21:46;;;;;;;8.38;4.32;;;;;;;;;;5024465;28;20208;-68
2023/08/27 09:24:13;;;;;;;8.13;5.13;;;;;;;;;;5024056;28;20213;-69
2023/08/27 09:26:40;;;;;;;7.63;4.78;;;;;;;;;;5024190;28;20211;-70
2023/08/27 09:29:09;;;;;;;11.05;6.57;;;;;;;;;;5020272;28;20232;-71
2023/08/27 09:31:39;;;;;;;14.13;7.13;;;;;;;;;;5020441;28;20299;-68
2023/08/27 09:34:06;;;;;;;8.60;6.10;;;;;;;;;;5025418;28;20707;-68
2023/08/27 09:36:34;;;;;;;10.88;7.32;;;;;;;;;;5021784;28;20223;-68
2023/08/27 09:39:09;;;;;;;18.08;8.07;;;;;;;;;;5012212;28;20204;-69
2023/08/27 09:41:37;;;;;;;18.15;9.50;;;;;;;;;;5000932;28;20531;-68
2023/08/27 09:44:05;;;;;;;16.35;9.27;;;;;;;;;;5005258;28;20302;-68
2023/08/27 09:46:32;;;;;;;13.85;8.90;;;;;;;;;;5003498;28;20228;-69
2023/08/27 09:49:00;;;;;;;13.98;8.95;;;;;;;;;;5005515;28;20264;-68
2023/08/27 09:51:28;;;;;;;14.75;9.45;;;;;;;;;;5003325;28;20225;-70
2023/08/27 09:53:55;;;;;;;12.52;8.80;;;;;;;;;;5000031;28;20221;-69
2023/08/27 09:56:25;;;;;;;11.82;7.63;;;;;;;;;;5003555;28;20228;-69
2023/08/27 09:58:53;;;;;;;8.50;7.57;;;;;;;;;;5005292;28;20233;-69
2023/08/27 10:01:20;;;;;;;11.40;8.65;;;;;;;;;;5006158;28;20758;-63
2023/08/27 10:03:47;;;;;;;11.63;8.18;;;;;;;;;;5014377;28;20216;-63
2023/08/27 10:06:14;;;;;;;12.20;8.02;;;;;;;;;;5000110;28;20209;-63
2023/08/27 10:08:48;;;;;;;8.15;7.22;;;;;;;;;;5016149;28;20251;-64
2023/08/27 10:11:19;;;;;;;10.85;7.97;;;;;;;;;;5022815;28;20223;-63
2023/08/27 10:13:47;;;;;;;10.27;7.50;;;;;;;;;;5003043;28;20228;-64
2023/08/27 10:16:16;;;;;;;10.35;7.60;;;;;;;;;;5004810;28;20291;-64
2023/08/27 10:18:43;;;;;;;8.95;6.93;;;;;;;;;;4999733;28;20269;-63
2023/08/27 10:21:10;;;;;;;9.35;6.65;;;;;;;;;;5018631;28;20651;-64
2023/08/27 10:23:40;;;;;;;7.55;6.22;;;;;;;;;;5023071;28;20220;-63
2023/08/27 10:26:07;;;;;;;8.55;6.55;;;;;;;;;;5024078;28;20215;-63
2023/08/27 10:28:35;;;;;;;11.13;7.80;;;;;;;;;;5003028;28;20229;-63
2023/08/27 10:31:05;;;;;;;12.50;7.68;;;;;;;;;;5000505;28;20209;-65
2023/08/27 10:33:32;;;;;;;6.15;5.63;;;;;;;;;;5006414;28;20205;-63
2023/08/27 10:36:01;;;;;;;11.40;6.20;;;;;;;;;;5006883;28;20216;-64
2023/08/27 10:38:29;;;;;;;10.23;6.10;;;;;;;;;;5021338;28;20201;-64
2023/08/27 10:40:56;;;;;;;10.43;5.80;;;;;;;;;;5002275;28;20208;-63
2023/08/27 10:43:24;;;;;;;6.20;5.20;;;;;;;;;;5001102;28;20213;-62
2023/08/27 10:45:51;;;;;;;7.32;5.93;;;;;;;;;;5016774;28;20216;-61
2023/08/27 10:48:30;;;;;;;9.45;5.15;;;;;;;;;;5006358;28;20221;-63
2023/08/27 10:51:09;;;;;;;10.55;5.50;;;;;;;;;;5002679;28;20218;-65
2023/08/27 10:53:39;;;;;;;8.25;5.60;;;;;;;;;;5000913;28;20219;-63
2023/08/27 10:56:26;;;;;;;5.88;5.03;;;;;;;;;;5000520;28;20216;-63
2023/08/27 10:58:53;;;;;;;4.72;4.18;;;;;;;;;;5003981;28;20236;-63
2023/08/27 11:01:20;;;;;;;6.00;4.57;;;;;;;;;;5019470;28;20892;-63
2023/08/27 11:03:58;;;;;;;3.97;3.78;;;;;;;;;;5021977;28;20295;-63
2023/08/27 11:06:38;;;;;;;4.97;4.38;;;;;;;;;;5020164;28;20238;-63
2023/08/27 11:09:12;;;;;;;4.90;4.50;;;;;;;;;;5020171;28;20279;-63
2023/08/27 11:11:41;;;;;;;6.65;4.65;;;;;;;;;;5021794;28;20204;-63
2023/08/27 11:14:08;;;;;;;5.63;4.47;;;;;;;;;;5022276;28;20326;-63
2023/08/27 11:16:44;;;;;;;5.63;4.93;;;;;;;;;;5018383;28;20301;-63
2023/08/27 11:19:13;;;;;;;5.07;4.65;;;;;;;;;;5018003;28;20289;-63
2023/08/27 11:21:47;;;;;;;5.60;4.68;;;;;;;;;;5020333;28;20223;-63
2023/08/27 11:24:14;;;;;;;4.53;4.00;;;;;;;;;;5023985;28;20271;-66
2023/08/27 11:26:42;;;;;;;4.03;3.80;;;;;;;;;;5022248;28;20299;-66
2023/08/27 11:29:09;;;;;;;5.88;4.78;;;;;;;;;;5010838;28;20252;-63
2023/08/27 11:31:36;;;;;;;4.75;4.28;;;;;;;;;;5002676;28;20648;-63
2023/08/27 11:34:05;;;;;;;3.78;3.47;;;;;;;;;;5003759;28;20224;-64
2023/08/27 11:36:33;;;;;;;4.95;4.18;;;;;;;;;;5001109;28;20683;-61
2023/08/27 11:39:01;;;;;;;6.05;3.65;;;;;;;;;;5000303;28;20201;-59
2023/08/27 11:41:35;;;;;;;3.53;3.42;;;;;;;;;;5001763;28;20215;-60
2023/08/27 11:44:02;;;;;;;4.05;3.70;;;;;;;;;;5003125;28;20239;-60
2023/08/27 11:46:29;;;;;;;3.65;3.35;;;;;;;;;;4999571;28;20295;-63
2023/08/27 11:48:56;;;;;;;3.88;2.90;;;;;;;;;;4999370;28;20239;-60
2023/08/27 11:51:24;;;;;;;4.05;3.75;;;;;;;;;;5003087;28;20213;-60
2023/08/27 11:53:53;;;;;;;4.38;3.70;;;;;;;;;;5001515;28;20720;-59
2023/08/27 11:56:20;;;;;;;2.30;2.10;;;;;;;;;;5000920;28;20220;-60
2023/08/27 11:58:51;;;;;;;2.30;2.10;;;;;;;;;;4998033;28;20209;-60
2023/08/27 12:01:19;;;;;;;2.17;1.90;;;;;;;;;;4999459;28;20267;-59
2023/08/27 12:03:48;;;;;;;4.10;2.45;;;;;;;;;;5003249;28;20215;-62
2023/08/27 12:06:17;;;;;;;1.88;1.77;;;;;;;;;;5018466;28;20212;-60
2023/08/27 12:08:44;;;;;;;1.73;1.70;;;;;;;;;;5021382;28;20235;-61
2023/08/27 12:11:13;;;;;;;2.70;2.40;;;;;;;;;;5017565;28;20317;-63
2023/08/27 12:13:42;;;;;;;1.35;1.35;;;;;;;;;;5017707;28;20290;-63
2023/08/27 12:16:09;;;;;;;1.90;1.80;;;;;;;;;;5022544;28;20218;-59
2023/08/27 12:18:36;;;;;;;1.90;1.80;;;;;;;;;;5020934;28;20224;-63
2023/08/27 12:21:07;;;;;;;1.60;1.50;;;;;;;;;;5002432;28;20216;-62
2023/08/27 12:23:35;;;;;;;1.35;1.35;;;;;;;;;;4995550;28;20239;-65
2023/08/27 12:26:03;;;;;;;1.63;1.50;;;;;;;;;;4997461;28;20596;-62
2023/08/27 12:28:33;;;;;;;1.67;1.67;;;;;;;;;;4999305;28;20282;-61
2023/08/27 12:31:00;;;;;;;1.85;0.88;;;;;;;;;;5002956;28;20260;-63
2023/08/27 12:33:39;;;;;;;1.30;1.30;;;;;;;;;;5003332;28;20259;-65
2023/08/27 12:36:06;;;;;;;1.80;0.93;;;;;;;;;;5000841;28;20619;-63
2023/08/27 12:38:33;;;;;;;1.10;1.10;;;;;;;;;;4998903;28;20217;-62
2023/08/27 12:41:00;;;;;;;1.45;1.45;;;;;;;;;;5002904;28;20212;-62
2023/08/27 12:43:27;;;;;;;1.50;1.50;;;;;;;;;;5005028;28;20598;-62
2023/08/27 12:45:56;;;;;;;2.17;1.60;;;;;;;;;;5003003;28;20201;-63
2023/08/27 12:48:23;;;;;;;1.95;1.83;;;;;;;;;;5000852;28;20224;-63
2023/08/27 12:50:50;;;;;;;1.50;1.35;;;;;;;;;;5000709;28;20357;-63
2023/08/27 12:53:17;;;;;;;1.45;1.30;;;;;;;;;;5004233;28;20710;-65
2023/08/27 12:55:45;;;;;;;1.70;1.58;;;;;;;;;;5006345;28;20237;-62
2023/08/27 12:58:12;;;;;;;1.45;1.45;;;;;;;;;;5006363;28;20215;-64
2023/08/27 13:00:39;;;;;;;1.90;1.33;;;;;;;;;;5002523;28;20209;-62
2023/08/27 13:03:07;;;;;;;1.08;0.85;;;;;;;;;;5002388;28;20255;-62
2023/08/27 13:05:34;;;;;;;1.25;1.25;;;;;;;;;;5002432;28;20201;-62
2023/08/27 13:08:02;;;;;;;1.30;1.00;;;;;;;;;;5005931;28;20260;-63
2023/08/27 13:10:29;;;;;;;1.15;1.05;;;;;;;;;;5006850;28;20228;-63
2023/08/27 13:12:56;;;;;;;1.10;1.00;;;;;;;;;;5001808;28;20201;-63
2023/08/27 13:15:23;;;;;;;2.30;0.95;;;;;;;;;;5001979;28;20213;-62
2023/08/27 13:17:50;;;;;;;0.80;0.80;;;;;;;;;;5001954;28;20528;-64
2023/08/27 13:20:20;;;;;;;0.90;0.90;;;;;;;;;;5018837;28;20223;-63
2023/08/27 13:22:47;;;;;;;0.70;0.70;;;;;;;;;;5012238;28;20213;-63
2023/08/27 13:25:17;;;;;;;0.75;0.75;;;;;;;;;;5000789;28;20213;-62
2023/08/27 13:27:44;;;;;;;0.70;0.70;;;;;;;;;;5002776;28;20209;-62
2023/08/27 13:30:11;;;;;;;1.33;0.70;;;;;;;;;;5005971;28;20243;-62
2023/08/27 13:32:38;;;;;;;2.28;0.77;;;;;;;;;;5004065;28;20283;-62
2023/08/27 13:35:06;;;;;;;1.10;0.80;;;;;;;;;;5006761;28;20209;-64
2023/08/27 13:37:34;;;;;;;1.65;0.98;;;;;;;;;;5005945;28;20208;-62
2023/08/27 13:40:02;;;;;;;1.10;0.80;;;;;;;;;;5021306;28;20204;-62
2023/08/27 13:42:29;;;;;;;0.95;0.90;;;;;;;;;;5005365;28;20587;-62
2023/08/27 13:44:56;;;;;;;1.95;0.70;;;;;;;;;;5009949;28;20754;-62
2023/08/27 13:47:24;;;;;;;0.93;0.70;;;;;;;;;;5025012;28;20239;-65
2023/08/27 13:49:51;;;;;;;3.05;0.88;;;;;;;;;;5010621;28;20232;-62
2023/08/27 13:52:18;;;;;;;0.70;0.70;;;;;;;;;;5004166;28;20687;-62
2023/08/27 13:54:47;;;;;;;0.80;0.80;;;;;;;;;;5016306;28;20258;-64
2023/08/27 13:57:15;;;;;;;0.73;0.73;;;;;;;;;;5013412;28;20214;-63
2023/08/27 13:59:42;;;;;;;0.70;0.70;;;;;;;;;;5011206;28;20208;-63
2023/08/27 14:02:10;;;;;;;2.50;0.80;;;;;;;;;;5010690;28;20799;-62
2023/08/27 14:04:37;;;;;;;0.80;0.80;;;;;;;;;;4999764;28;20221;-63
2023/08/27 14:07:04;;;;;;;0.80;0.80;;;;;;;;;;5003421;28;20434;-63
2023/08/27 14:09:32;;;;;;;2.05;0.60;;;;;;;;;;5003164;28;20597;-62
2023/08/27 14:12:01;;;;;;;0.85;0.85;;;;;;;;;;5005106;28;20295;-63
2023/08/27 14:14:28;;;;;;;2.53;0.60;;;;;;;;;;5004750;28;20217;-63
2023/08/27 14:16:55;;;;;;;1.77;0.63;;;;;;;;;;4999563;28;20715;-62
2023/08/27 14:19:22;;;;;;;0.90;0.60;;;;;;;;;;4999298;28;20236;-63
2023/08/27 14:21:49;;;;;;;0.73;0.70;;;;;;;;;;5004514;28;20205;-63
2023/08/27 14:24:17;;;;;;;0.55;0.55;;;;;;;;;;5007280;28;20201;-63
2023/08/27 14:26:44;;;;;;;1.98;0.50;;;;;;;;;;5016763;28;20242;-63
2023/08/27 14:29:13;;;;;;;0.50;0.50;;;;;;;;;;5013280;28;20200;-63
2023/08/27 14:31:40;;;;;;;0.63;0.60;;;;;;;;;;5010005;28;20232;-63
2023/08/27 14:34:08;;;;;;;0.70;0.70;;;;;;;;;;5016245;28;20216;-63
2023/08/27 14:36:35;;;;;;;4.38;1.00;;;;;;;;;;5019993;28;20204;-63
2023/08/27 14:39:02;;;;;;;3.10;0.73;;;;;;;;;;5019866;28;20238;-63
2023/08/27 14:41:31;;;;;;;0.80;0.80;;;;;;;;;;5008608;28;20201;-63
2023/08/27 14:43:58;;;;;;;5.28;1.30;;;;;;;;;;5007377;28;20217;-62
2023/08/27 14:46:27;;;;;;;0.98;0.98;;;;;;;;;;5004803;28;20205;-63